Time;durP1;ratioP1;P1;durP2;ratioP2;P2;SDS_P1;SDS_P2;PMS_P1;PMS_P2;Temp;Humidity;BMP_temperature;BMP_pressure;BME280_temperature;BME280_humidity;BME280_pressure;Samples;Min_cycle;Max_cycle;Signal;HPM_P1;HPM_P2
2022/02/26 00:00:16;;;;;;;19.70;4.28;;;;;;;1.35;85.76;103337.28;5047417;28;20032;-70
2022/02/26 00:02:41;;;;;;;17.10;3.58;;;;;;;1.33;86.42;103342.44;5067092;28;20169;-72
2022/02/26 00:05:07;;;;;;;18.52;3.97;;;;;;;1.35;86.35;103345.97;5046691;28;20533;-72
2022/02/26 00:07:32;;;;;;;19.85;4.38;;;;;;;1.32;86.11;103342.38;5036107;28;20090;-71
2022/02/26 00:09:59;;;;;;;19.30;3.95;;;;;;;1.38;86.74;103350.41;5046418;28;20065;-72
2022/02/26 00:12:24;;;;;;;23.33;4.80;;;;;;;1.47;86.91;103345.63;5045912;28;20901;-71
2022/02/26 00:14:50;;;;;;;27.73;3.80;;;;;;;1.55;87.16;103350.28;5054490;28;20035;-71
2022/02/26 00:17:15;;;;;;;24.65;3.42;;;;;;;1.62;87.25;103355.81;5049416;28;20071;-71
2022/02/26 00:19:40;;;;;;;40.97;4.13;;;;;;;1.60;87.32;103359.19;5041370;28;20029;-72
2022/02/26 00:22:06;;;;;;;26.23;4.13;;;;;;;1.56;86.89;103360.75;5043815;28;20026;-72
2022/02/26 00:24:31;;;;;;;25.98;4.38;;;;;;;1.53;86.65;103364.94;5042543;28;20036;-71
2022/02/26 00:26:56;;;;;;;34.97;4.95;;;;;;;1.36;86.61;103380.66;5051797;28;20039;-70
2022/02/26 00:29:22;;;;;;;40.47;4.72;;;;;;;1.46;87.22;103376.75;5026664;28;20030;-71
2022/02/26 00:31:47;;;;;;;33.22;4.75;;;;;;;1.63;88.03;103381.00;5026819;28;20391;-71
2022/02/26 00:34:12;;;;;;;35.00;4.47;;;;;;;1.71;88.33;103373.53;5027875;28;20041;-71
2022/02/26 00:36:38;;;;;;;36.50;4.20;;;;;;;1.79;88.11;103367.78;5035518;28;20415;-72
2022/02/26 00:39:04;;;;;;;35.38;4.40;;;;;;;1.76;87.71;103379.84;5045469;28;20143;-69
2022/02/26 00:41:29;;;;;;;24.48;4.97;;;;;;;1.74;87.44;103389.28;5044024;28;20029;-73
2022/02/26 00:43:55;;;;;;;37.15;5.18;;;;;;;1.72;87.26;103380.50;5032702;28;20040;-70
2022/02/26 00:46:20;;;;;;;22.10;4.22;;;;;;;1.69;86.70;103389.91;5035436;28;20028;-70
2022/02/26 00:51:30;;;;;;;23.52;3.72;;;;;;;1.68;87.21;103386.41;5046850;28;20044;-70
2022/02/26 00:53:55;;;;;;;22.67;4.50;;;;;;;1.65;87.18;103381.06;5045892;28;20068;-72
2022/02/26 00:56:21;;;;;;;17.33;3.90;;;;;;;1.61;86.96;103379.16;5046091;28;20063;-72
2022/02/26 00:58:46;;;;;;;21.63;4.07;;;;;;;1.46;86.81;103384.53;5046068;28;20154;-70
2022/02/26 01:01:11;;;;;;;20.10;3.58;;;;;;;1.36;86.77;103385.84;5047156;28;20397;-72
2022/02/26 01:03:37;;;;;;;15.68;2.75;;;;;;;1.22;86.65;103387.78;5045784;28;20548;-71
2022/02/26 01:06:02;;;;;;;17.15;3.28;;;;;;;1.06;86.43;103391.41;5046500;28;20437;-72
2022/02/26 01:08:27;;;;;;;24.83;4.55;;;;;;;1.03;86.62;103391.25;5046817;28;20082;-72
2022/02/26 01:10:53;;;;;;;18.02;3.55;;;;;;;1.02;86.80;103389.47;5058516;28;20514;-72
2022/02/26 01:13:18;;;;;;;28.27;4.63;;;;;;;1.07;87.02;103396.66;5066890;28;20021;-71
2022/02/26 01:15:43;;;;;;;30.13;3.90;;;;;;;1.12;87.45;103396.88;5066174;28;20029;-71
2022/02/26 01:18:09;;;;;;;20.08;4.38;;;;;;;1.13;87.51;103390.84;5066136;28;20025;-71
2022/02/26 01:20:34;;;;;;;24.38;4.07;;;;;;;1.15;87.58;103389.22;5047247;28;20407;-72
2022/02/26 01:23:00;;;;;;;25.30;4.95;;;;;;;1.16;87.60;103382.31;5045853;28;20087;-71
2022/02/26 01:25:25;;;;;;;17.23;3.97;;;;;;;1.09;87.50;103374.22;5044510;28;20060;-71
2022/02/26 01:27:50;;;;;;;22.08;3.60;;;;;;;1.01;87.22;103370.41;5046312;28;20031;-71
2022/02/26 01:30:16;;;;;;;19.60;4.18;;;;;;;0.87;87.12;103364.53;5045740;28;20037;-70
2022/02/26 01:32:41;;;;;;;24.95;4.18;;;;;;;0.73;87.15;103375.16;5045481;28;20146;-70
2022/02/26 01:35:07;;;;;;;27.30;3.25;;;;;;;0.65;87.16;103366.13;5045250;28;20418;-70
2022/02/26 01:37:33;;;;;;;20.92;3.92;;;;;;;0.59;87.17;103363.22;5046475;28;20036;-71
2022/02/26 01:39:58;;;;;;;20.23;2.97;;;;;;;0.53;87.35;103366.41;5045874;28;20041;-70
2022/02/26 01:42:23;;;;;;;11.30;3.20;;;;;;;0.47;87.03;103358.31;5060884;28;20107;-71
2022/02/26 01:44:50;;;;;;;16.85;3.75;;;;;;;0.42;87.37;103362.41;5069726;28;20025;-71
2022/02/26 01:47:16;;;;;;;16.65;3.63;;;;;;;0.38;87.20;103356.16;5068541;28;20416;-71
2022/02/26 01:49:41;;;;;;;22.63;4.63;;;;;;;0.46;87.39;103366.94;5070464;28;20082;-71
2022/02/26 01:52:08;;;;;;;28.13;4.80;;;;;;;0.55;87.74;103362.19;5066807;28;20041;-70
2022/02/26 01:54:34;;;;;;;23.83;5.45;;;;;;;0.62;88.03;103360.78;5050225;28;20025;-71
2022/02/26 01:56:59;;;;;;;27.83;5.20;;;;;;;0.68;88.07;103361.09;5047351;28;20104;-71
2022/02/26 01:59:25;;;;;;;26.85;5.22;;;;;;;0.68;88.02;103367.97;5050179;28;20542;-71
2022/02/26 02:01:50;;;;;;;35.90;6.30;;;;;;;0.67;87.92;103371.38;5065865;28;20056;-72
2022/02/26 02:04:16;;;;;;;34.63;5.90;;;;;;;0.64;87.64;103374.72;5069755;28;20037;-72
2022/02/26 02:06:42;;;;;;;33.90;5.97;;;;;;;0.66;87.78;103375.69;5068064;28;20058;-72
2022/02/26 02:09:07;;;;;;;32.28;6.90;;;;;;;0.61;87.88;103387.56;5046362;28;20080;-71
2022/02/26 02:11:34;;;;;;;32.83;5.70;;;;;;;0.66;87.97;103391.25;5029352;28;20464;-71
2022/02/26 02:14:00;;;;;;;19.73;6.05;;;;;;;0.69;88.14;103391.41;5028680;28;20029;-72
2022/02/26 02:16:25;;;;;;;27.50;6.07;;;;;;;0.67;88.14;103389.56;5034971;28;20037;-72
2022/02/26 02:18:50;;;;;;;21.17;5.50;;;;;;;0.58;87.87;103384.81;5048557;28;20028;-71
2022/02/26 02:21:16;;;;;;;23.75;4.15;;;;;;;0.47;87.69;103395.53;5048735;28;20021;-70
2022/02/26 02:23:42;;;;;;;19.10;3.70;;;;;;;0.35;87.49;103384.53;5049761;28;20056;-71
2022/02/26 02:26:07;;;;;;;20.65;4.30;;;;;;;0.35;87.72;103376.75;5068967;28;20032;-72
2022/02/26 02:28:33;;;;;;;21.98;4.35;;;;;;;0.33;87.78;103374.09;5069138;28;20474;-72
2022/02/26 02:30:58;;;;;;;30.40;4.85;;;;;;;0.27;87.87;103383.28;5068980;28;20482;-72
2022/02/26 02:33:23;;;;;;;20.77;3.85;;;;;;;0.19;87.64;103380.31;5053202;28;20267;-72
2022/02/26 02:35:49;;;;;;;19.92;4.30;;;;;;;0.13;87.61;103373.09;5048833;28;20028;-72
2022/02/26 02:38:16;;;;;;;26.33;4.63;;;;;;;0.11;87.70;103385.09;5048029;28;20044;-65
2022/02/26 02:40:43;;;;;;;27.88;5.28;;;;;;;0.04;87.51;103390.78;5067958;28;20024;-73
2022/02/26 02:43:10;;;;;;;24.42;4.72;;;;;;;-0.01;87.61;103395.72;5067884;28;20021;-71
2022/02/26 02:45:35;;;;;;;22.27;4.30;;;;;;;-0.01;87.64;103400.91;5068265;28;20059;-72
2022/02/26 02:48:01;;;;;;;16.17;4.93;;;;;;;-0.04;87.87;103393.88;5066381;28;20025;-70
2022/02/26 02:50:26;;;;;;;24.95;5.30;;;;;;;-0.10;87.69;103401.31;5068247;28;20025;-71
2022/02/26 02:52:52;;;;;;;33.00;5.22;;;;;;;-0.15;87.74;103395.03;5057879;28;20554;-72
2022/02/26 02:55:20;;;;;;;32.00;5.72;;;;;;;-0.05;87.93;103405.06;5047097;28;20028;-72
2022/02/26 02:57:46;;;;;;;21.38;5.65;;;;;;;0.00;88.35;103405.31;5047172;28;20064;-71
2022/02/26 03:00:13;;;;;;;26.70;5.47;;;;;;;0.02;88.06;103410.53;5047669;28;20456;-73
2022/02/26 03:02:39;;;;;;;18.77;4.82;;;;;;;-0.01;88.17;103413.88;5047437;28;20127;-71
2022/02/26 03:05:04;;;;;;;21.42;5.88;;;;;;;0.02;88.02;103420.91;5048062;28;20120;-72
2022/02/26 03:07:30;;;;;;;29.50;6.35;;;;;;;0.14;88.67;103415.47;5048424;28;20041;-70
2022/02/26 03:09:55;;;;;;;32.33;6.45;;;;;;;0.27;89.11;103427.38;5067472;28;20041;-73
2022/02/26 03:12:20;;;;;;;50.90;8.15;;;;;;;0.43;89.21;103435.13;5067570;28;20473;-70
2022/02/26 03:14:46;;;;;;;32.80;7.07;;;;;;;0.58;89.63;103434.09;5048346;28;20033;-71
2022/02/26 03:17:11;;;;;;;26.98;6.93;;;;;;;0.60;89.39;103432.50;5047810;28;20017;-70
2022/02/26 03:19:37;;;;;;;26.45;5.25;;;;;;;0.52;88.93;103428.59;5047024;28;20449;-70
2022/02/26 03:22:04;;;;;;;41.00;6.25;;;;;;;0.49;88.84;103419.84;5047360;28;20104;-71
2022/02/26 03:24:30;;;;;;;29.38;6.10;;;;;;;0.46;88.84;103435.28;5060231;28;20479;-72
2022/02/26 03:26:58;;;;;;;33.17;8.15;;;;;;;0.50;89.15;103432.03;5051452;28;20693;-72
2022/02/26 03:29:30;;;;;;;32.67;7.97;;;;;;;0.56;89.23;103431.44;5046998;28;20051;-73
2022/02/26 03:31:55;;;;;;;30.40;7.60;;;;;;;0.60;89.35;103433.34;5047018;28;20739;-72
2022/02/26 03:34:21;;;;;;;23.98;7.85;;;;;;;0.61;89.12;103435.13;5047858;28;20116;-72
2022/02/26 03:36:48;;;;;;;34.97;7.65;;;;;;;0.69;89.48;103435.53;5056809;28;20450;-72
2022/02/26 03:39:14;;;;;;;42.15;8.63;;;;;;;0.73;89.49;103442.63;5068105;28;20009;-72
2022/02/26 03:41:39;;;;;;;39.00;7.75;;;;;;;0.75;89.31;103446.22;5059506;28;20027;-73
2022/02/26 03:44:05;;;;;;;33.78;6.80;;;;;;;0.78;89.30;103458.44;5047370;28;20483;-70
2022/02/26 03:46:30;;;;;;;40.63;8.25;;;;;;;0.83;89.41;103461.25;5050638;28;20086;-73
2022/02/26 03:48:56;;;;;;;47.30;7.32;;;;;;;0.80;89.27;103463.72;5067466;28;20481;-72
2022/02/26 03:51:21;;;;;;;36.20;7.32;;;;;;;0.79;88.96;103465.44;5064554;28;20016;-70
2022/02/26 03:53:46;;;;;;;48.25;7.63;;;;;;;0.78;89.20;103460.16;5046248;28;20025;-72
2022/02/26 03:56:12;;;;;;;27.38;6.60;;;;;;;0.73;88.85;103465.13;5046318;28;20017;-71
2022/02/26 03:58:38;;;;;;;49.13;7.80;;;;;;;0.70;88.68;103471.06;5047340;28;20479;-71
2022/02/26 04:01:03;;;;;;;24.55;6.13;;;;;;;0.66;88.86;103465.63;5046538;28;20033;-71
2022/02/26 04:03:28;;;;;;;31.02;6.72;;;;;;;0.63;88.57;103469.84;5062539;28;20032;-73
2022/02/26 04:05:55;;;;;;;49.90;7.88;;;;;;;0.66;88.83;103468.22;5066313;28;20113;-70
2022/02/26 04:08:20;;;;;;;37.13;7.05;;;;;;;0.65;89.16;103462.13;5052000;28;20048;-73
2022/02/26 04:10:45;;;;;;;35.47;6.07;;;;;;;0.61;89.09;103470.59;5046015;28;20025;-72
2022/02/26 04:13:11;;;;;;;28.23;5.93;;;;;;;0.60;89.11;103471.41;5058536;28;20551;-71
2022/02/26 04:15:36;;;;;;;46.63;7.18;;;;;;;0.60;89.18;103474.88;5067059;28;20125;-72
2022/02/26 04:18:01;;;;;;;34.22;6.82;;;;;;;0.60;89.28;103479.19;5052429;28;20111;-71
2022/02/26 04:20:27;;;;;;;26.30;5.93;;;;;;;0.53;89.13;103477.97;5046764;28;20028;-71
2022/02/26 04:22:52;;;;;;;28.35;6.53;;;;;;;0.53;89.03;103472.78;5046046;28;20033;-71
2022/02/26 04:25:17;;;;;;;26.55;6.43;;;;;;;0.49;88.82;103466.53;5044532;28;20403;-71
2022/02/26 04:27:43;;;;;;;40.25;6.07;;;;;;;0.41;88.92;103470.47;5055323;28;20074;-72
2022/02/26 04:30:09;;;;;;;25.95;5.82;;;;;;;0.38;88.75;103478.09;5064749;28;20023;-71
2022/02/26 04:32:36;;;;;;;37.35;6.28;;;;;;;0.34;88.78;103481.34;5035200;28;20418;-72
2022/02/26 04:35:02;;;;;;;37.70;6.28;;;;;;;0.34;88.76;103482.25;5066381;28;20024;-72
2022/02/26 04:37:27;;;;;;;22.10;5.32;;;;;;;0.32;88.93;103483.84;5059172;28;20471;-70
2022/02/26 04:39:53;;;;;;;21.55;5.25;;;;;;;0.29;89.09;103478.50;5056544;28;20558;-70
2022/02/26 04:42:18;;;;;;;24.38;6.22;;;;;;;0.29;89.11;103488.88;5045602;28;20017;-70
2022/02/26 04:44:46;;;;;;;30.48;5.85;;;;;;;0.31;89.20;103484.69;5046933;28;20479;-70
2022/02/26 04:47:12;;;;;;;23.63;5.40;;;;;;;0.24;88.99;103477.41;5047601;28;20025;-72
2022/02/26 04:49:38;;;;;;;25.77;5.53;;;;;;;0.13;89.14;103482.00;5047379;28;20503;-71
2022/02/26 04:52:04;;;;;;;22.02;5.05;;;;;;;0.03;88.65;103482.34;5046616;28;20017;-72
2022/02/26 04:54:30;;;;;;;31.10;6.43;;;;;;;0.03;89.00;103491.00;5044868;28;20086;-71
2022/02/26 04:56:55;;;;;;;18.40;5.22;;;;;;;0.05;89.32;103491.06;5046573;28;20025;-71
2022/02/26 04:59:20;;;;;;;25.60;5.22;;;;;;;0.09;89.28;103490.44;5046714;28;20063;-71
2022/02/26 05:01:46;;;;;;;28.33;5.82;;;;;;;0.16;89.37;103494.25;5046472;28;20017;-72
2022/02/26 05:04:11;;;;;;;22.08;5.03;;;;;;;0.12;89.34;103488.03;5047333;28;20033;-71
2022/02/26 05:06:36;;;;;;;19.85;5.30;;;;;;;0.08;88.98;103492.13;5045533;28;20016;-74
2022/02/26 05:09:02;;;;;;;27.10;6.07;;;;;;;0.13;88.85;103489.78;5045825;28;20044;-72
2022/02/26 05:11:27;;;;;;;33.65;5.35;;;;;;;0.11;89.17;103501.78;5045906;28;20017;-70
2022/02/26 05:13:52;;;;;;;17.88;4.10;;;;;;;0.03;89.24;103496.19;5046457;28;20439;-71
2022/02/26 05:16:18;;;;;;;23.25;5.20;;;;;;;0.01;89.18;103496.91;5046342;28;20502;-72
2022/02/26 05:18:43;;;;;;;23.58;4.65;;;;;;;0.01;89.12;103491.72;5045585;28;20036;-72
2022/02/26 05:21:08;;;;;;;20.30;4.45;;;;;;;-0.03;89.04;103499.34;5046382;28;20040;-72
2022/02/26 05:23:34;;;;;;;27.05;5.57;;;;;;;-0.09;89.05;103496.41;5046269;28;20029;-71
2022/02/26 05:25:59;;;;;;;28.05;5.07;;;;;;;-0.13;89.24;103497.06;5045808;28;20028;-70
2022/02/26 05:28:24;;;;;;;26.13;5.22;;;;;;;-0.19;89.06;103499.31;5046483;28;20025;-70
2022/02/26 05:30:50;;;;;;;21.58;4.63;;;;;;;-0.24;89.23;103500.78;5045745;28;20033;-71
2022/02/26 05:33:15;;;;;;;18.00;4.50;;;;;;;-0.31;89.06;103503.03;5046607;28;20036;-71
2022/02/26 05:35:40;;;;;;;20.60;3.78;;;;;;;-0.35;89.17;103514.06;5046910;28;20032;-71
2022/02/26 05:38:06;;;;;;;23.45;4.95;;;;;;;-0.35;89.17;103521.81;5045851;28;20392;-71
2022/02/26 05:40:31;;;;;;;25.38;4.95;;;;;;;-0.35;89.17;103519.22;5045680;28;20033;-71
2022/02/26 05:42:56;;;;;;;14.57;4.13;;;;;;;-0.36;88.95;103521.75;5045259;28;20029;-71
2022/02/26 05:45:22;;;;;;;19.40;3.83;;;;;;;-0.39;89.07;103518.16;5046179;28;20106;-70
2022/02/26 05:47:47;;;;;;;22.05;4.45;;;;;;;-0.40;89.17;103529.34;5046242;28;20021;-72
2022/02/26 05:50:13;;;;;;;16.08;3.60;;;;;;;-0.44;89.12;103526.50;5046761;28;20044;-70
2022/02/26 05:52:39;;;;;;;15.52;3.97;;;;;;;-0.45;88.94;103540.25;5045819;28;20083;-71
2022/02/26 05:55:05;;;;;;;15.10;3.70;;;;;;;-0.46;89.24;103535.88;5045319;28;20029;-72
2022/02/26 05:57:31;;;;;;;20.00;4.78;;;;;;;-0.46;89.28;103534.19;5046133;28;20021;-71
2022/02/26 05:59:56;;;;;;;31.00;4.65;;;;;;;-0.48;89.58;103534.91;5045785;28;20076;-72
2022/02/26 06:02:21;;;;;;;26.58;4.10;;;;;;;-0.54;89.27;103544.09;5046037;28;20032;-71
2022/02/26 06:04:47;;;;;;;34.97;4.13;;;;;;;-0.57;89.14;103549.09;5045919;28;20090;-70
2022/02/26 06:07:12;;;;;;;24.23;5.15;;;;;;;-0.54;89.17;103545.81;5046182;28;20021;-70
2022/02/26 06:09:37;;;;;;;27.13;4.85;;;;;;;-0.49;89.15;103546.09;5045055;28;20099;-71
2022/02/26 06:12:03;;;;;;;25.40;6.20;;;;;;;-0.40;89.45;103550.06;5045045;28;20428;-70
2022/02/26 06:14:28;;;;;;;25.67;5.38;;;;;;;-0.37;89.43;103548.47;5046193;28;20236;-72
2022/02/26 06:16:54;;;;;;;26.38;6.07;;;;;;;-0.30;89.52;103548.00;5054992;28;20036;-72
2022/02/26 06:19:19;;;;;;;34.35;8.35;;;;;;;-0.21;89.60;103547.59;5065884;28;20099;-71
2022/02/26 06:21:47;;;;;;;26.63;6.82;;;;;;;-0.17;89.68;103550.47;5064253;28;20467;-70
2022/02/26 06:24:13;;;;;;;35.57;8.47;;;;;;;-0.09;89.15;103549.97;5064997;28;20029;-73
2022/02/26 06:26:38;;;;;;;33.28;7.55;;;;;;;-0.06;89.72;103547.56;5063380;28;20295;-72
2022/02/26 06:29:04;;;;;;;35.10;8.73;;;;;;;-0.04;89.82;103543.31;5045331;28;20040;-72
2022/02/26 06:31:29;;;;;;;47.28;12.48;;;;;;;0.03;89.61;103547.16;5048966;28;20095;-70
2022/02/26 06:33:54;;;;;;;58.97;14.30;;;;;;;0.14;90.41;103553.81;5048721;28;20035;-71
2022/02/26 06:36:19;;;;;;;50.85;14.05;;;;;;;0.25;90.60;103549.19;5048222;28;20137;-71
2022/02/26 06:38:45;;;;;;;69.93;18.40;;;;;;;0.36;91.33;103558.44;5046432;28;20056;-71
2022/02/26 06:41:11;;;;;;;61.72;17.95;;;;;;;0.49;91.96;103553.88;5048356;28;20044;-72
2022/02/26 06:43:39;;;;;;;61.85;16.73;;;;;;;0.55;92.24;103563.69;5064276;28;20083;-71
2022/02/26 06:46:11;;;;;;;51.63;15.73;;;;;;;0.59;92.41;103565.63;5067534;28;20518;-71
2022/02/26 06:48:36;;;;;;;48.92;14.70;;;;;;;0.60;91.83;103557.94;5043389;28;20283;-71
2022/02/26 06:51:01;;;;;;;47.97;13.70;;;;;;;0.61;91.36;103562.28;5047864;28;20356;-69
2022/02/26 06:53:27;;;;;;;42.78;11.93;;;;;;;0.58;91.21;103569.03;5048071;28;20447;-71
2022/02/26 06:55:52;;;;;;;51.28;13.23;;;;;;;0.56;91.26;103560.28;5037386;28;20560;-70
2022/02/26 06:58:17;;;;;;;54.83;14.25;;;;;;;0.58;91.04;103561.25;5028429;28;20472;-70
2022/02/26 07:00:43;;;;;;;48.50;13.07;;;;;;;0.58;91.08;103559.56;5027956;28;20018;-70
2022/02/26 07:03:08;;;;;;;44.15;10.80;;;;;;;0.58;91.12;103564.75;5028000;28;20365;-71
2022/02/26 07:05:34;;;;;;;30.35;10.68;;;;;;;0.59;91.07;103576.00;5028698;28;20636;-71
2022/02/26 07:07:59;;;;;;;35.72;11.50;;;;;;;0.58;91.36;103580.31;5027304;28;20055;-69
2022/02/26 07:10:24;;;;;;;45.88;15.00;;;;;;;0.65;91.33;103576.34;5027924;28;20037;-69
2022/02/26 07:12:50;;;;;;;47.47;14.77;;;;;;;0.69;91.41;103573.06;5044342;28;20052;-69
2022/02/26 07:15:15;;;;;;;56.47;17.80;;;;;;;0.71;91.42;103581.84;5052297;28;20617;-72
2022/02/26 07:17:40;;;;;;;51.25;18.08;;;;;;;0.73;91.63;103582.78;5053654;28;20048;-71
2022/02/26 07:20:07;;;;;;;53.67;19.75;;;;;;;0.77;91.70;103594.25;5047392;28;20116;-69
2022/02/26 07:22:32;;;;;;;63.95;20.60;;;;;;;0.79;91.76;103599.50;5052437;28;20020;-64
2022/02/26 07:24:57;;;;;;;55.15;21.52;;;;;;;0.84;92.07;103592.88;5055832;28;20096;-69
2022/02/26 07:27:23;;;;;;;55.70;18.55;;;;;;;0.90;92.00;103590.56;5054532;28;20120;-68
2022/02/26 07:29:48;;;;;;;73.22;22.58;;;;;;;0.96;92.21;103600.41;5056163;28;20111;-66
2022/02/26 07:32:13;;;;;;;62.55;23.92;;;;;;;0.98;92.33;103603.94;5052630;28;20050;-66
2022/02/26 07:34:39;;;;;;;63.67;23.80;;;;;;;0.97;92.39;103603.03;5057436;28;20107;-66
2022/02/26 07:37:04;;;;;;;60.30;24.50;;;;;;;1.01;92.45;103606.69;5056427;28;20041;-64
2022/02/26 07:39:30;;;;;;;79.15;28.50;;;;;;;1.00;92.48;103600.59;5052843;28;20539;-65
2022/02/26 07:41:55;;;;;;;79.15;26.50;;;;;;;1.04;92.51;103611.16;5048057;28;20052;-66
2022/02/26 07:44:20;;;;;;;78.53;31.00;;;;;;;1.05;92.64;103607.75;5046708;28;20025;-65
2022/02/26 07:46:46;;;;;;;75.15;29.02;;;;;;;1.09;92.57;103612.28;5047371;28;20104;-71
2022/02/26 07:49:11;;;;;;;73.38;30.50;;;;;;;1.16;92.70;103616.06;5049820;28;20024;-74
2022/02/26 07:51:37;;;;;;;74.35;30.60;;;;;;;1.20;92.73;103615.44;5056122;28;20033;-75
2022/02/26 07:54:03;;;;;;;74.00;30.15;;;;;;;1.23;92.68;103612.97;5055624;28;20024;-75
2022/02/26 07:56:28;;;;;;;74.20;28.48;;;;;;;1.29;92.61;103615.88;5057178;28;20032;-72
2022/02/26 07:58:54;;;;;;;60.30;24.00;;;;;;;1.33;92.80;103619.53;5047660;28;20463;-67
2022/02/26 08:01:19;;;;;;;48.15;21.15;;;;;;;1.38;92.70;103612.84;5045380;28;20100;-67
2022/02/26 08:03:44;;;;;;;74.45;28.60;;;;;;;1.45;92.67;103611.44;5047710;28;20039;-70
2022/02/26 08:06:10;;;;;;;51.75;21.98;;;;;;;1.54;92.70;103613.59;5045944;28;20024;-69
2022/02/26 08:08:35;;;;;;;66.78;27.55;;;;;;;1.55;92.76;103615.38;5045969;28;20176;-69
2022/02/26 08:11:00;;;;;;;72.03;25.90;;;;;;;1.61;92.65;103620.88;5045605;28;20429;-67
2022/02/26 08:13:26;;;;;;;61.67;22.65;;;;;;;1.69;92.73;103609.16;5045144;28;20449;-70
2022/02/26 08:15:51;;;;;;;52.90;21.90;;;;;;;1.75;92.83;103608.56;5044728;28;20094;-70
2022/02/26 08:18:17;;;;;;;49.42;19.90;;;;;;;1.81;92.59;103619.25;5045833;28;20112;-69
2022/02/26 08:20:42;;;;;;;49.72;23.70;;;;;;;1.92;92.90;103624.94;5044823;28;20025;-69
2022/02/26 08:23:08;;;;;;;60.65;24.58;;;;;;;1.94;92.69;103622.41;5046713;28;20064;-68
2022/02/26 08:25:34;;;;;;;56.33;21.70;;;;;;;1.98;92.54;103612.22;5044845;28;20175;-69
2022/02/26 08:27:59;;;;;;;45.85;21.42;;;;;;;2.02;92.65;103618.50;5047216;28;20108;-68
2022/02/26 08:30:25;;;;;;;54.83;27.38;;;;;;;2.00;92.80;103622.72;5045031;28;20546;-68
2022/02/26 08:32:50;;;;;;;70.75;27.95;;;;;;;2.05;92.48;103612.53;5050941;28;20483;-67
2022/02/26 08:35:16;;;;;;;64.30;27.83;;;;;;;2.15;92.70;103609.53;5061527;28;20747;-67
2022/02/26 08:37:43;;;;;;;45.17;22.13;;;;;;;2.22;92.70;103613.28;5046837;28;20036;-68
2022/02/26 08:40:09;;;;;;;67.55;28.42;;;;;;;2.27;92.80;103612.72;5057063;28;20017;-68
2022/02/26 08:42:35;;;;;;;81.60;33.33;;;;;;;2.31;92.77;103612.81;5047018;28;20158;-67
2022/02/26 08:45:04;;;;;;;70.32;30.90;;;;;;;2.34;92.81;103612.97;5043165;28;20116;-67
2022/02/26 08:47:30;;;;;;;76.55;35.58;;;;;;;2.45;92.92;103616.97;5046865;28;20379;-67
2022/02/26 08:49:56;;;;;;;75.47;31.83;;;;;;;2.50;92.84;103620.66;5045251;28;20048;-68
2022/02/26 08:52:22;;;;;;;64.38;30.65;;;;;;;2.58;93.00;103614.88;5044855;28;20423;-67
2022/02/26 08:54:47;;;;;;;59.03;29.02;;;;;;;2.62;93.02;103616.81;5044530;28;20029;-67
2022/02/26 08:57:12;;;;;;;67.88;32.72;;;;;;;2.61;92.54;103618.53;5045837;28;20025;-67
2022/02/26 08:59:38;;;;;;;74.85;32.47;;;;;;;2.67;92.78;103614.44;5048051;28;20097;-67
2022/02/26 09:02:03;;;;;;;73.50;31.10;;;;;;;2.74;92.54;103624.28;5045837;28;20100;-64
2022/02/26 09:04:29;;;;;;;63.05;27.65;;;;;;;2.77;92.29;103620.09;5046243;28;20032;-64
2022/02/26 09:06:54;;;;;;;69.70;30.13;;;;;;;2.85;92.07;103619.53;5045037;28;20414;-63
2022/02/26 09:09:20;;;;;;;75.90;27.90;;;;;;;2.94;92.34;103614.72;5044896;28;20049;-63
2022/02/26 09:11:45;;;;;;;66.72;29.40;;;;;;;3.03;92.28;103614.22;5044605;28;20029;-62
2022/02/26 09:14:11;;;;;;;57.83;28.58;;;;;;;3.07;91.98;103623.06;5046153;28;20044;-63
2022/02/26 09:16:36;;;;;;;51.08;24.98;;;;;;;3.16;92.24;103621.75;5044676;28;20057;-64
2022/02/26 09:19:02;;;;;;;51.88;24.08;;;;;;;3.31;92.23;103615.38;5046038;28;20435;-64
2022/02/26 09:21:28;;;;;;;62.20;26.08;;;;;;;3.41;92.20;103614.94;5042679;28;20404;-64
2022/02/26 09:23:53;;;;;;;63.10;24.52;;;;;;;3.46;92.24;103614.25;5045177;28;20033;-65
2022/02/26 09:26:19;;;;;;;53.00;23.77;;;;;;;3.52;91.80;103611.88;5043609;28;20108;-64
2022/02/26 09:28:44;;;;;;;56.90;22.48;;;;;;;3.60;91.39;103617.41;5045936;28;20017;-65
2022/02/26 09:31:10;;;;;;;51.90;23.10;;;;;;;3.59;90.99;103613.03;5044072;28;20032;-65
2022/02/26 09:33:37;;;;;;;56.05;21.95;;;;;;;3.70;90.62;103629.97;5046156;28;20037;-63
2022/02/26 09:36:04;;;;;;;49.33;21.73;;;;;;;3.71;90.10;103626.56;5043447;28;20098;-64
2022/02/26 09:38:29;;;;;;;52.88;21.55;;;;;;;3.74;89.47;103628.41;5045340;28;20068;-63
2022/02/26 09:41:00;;;;;;;41.45;21.70;;;;;;;3.79;89.60;103627.75;5044555;28;20114;-65
2022/02/26 09:43:26;;;;;;;39.35;19.65;;;;;;;3.91;90.03;103623.81;5043870;28;20036;-65
2022/02/26 09:45:52;;;;;;;38.63;20.75;;;;;;;3.99;89.49;103622.41;5044903;28;20261;-63
2022/02/26 09:48:18;;;;;;;43.63;19.45;;;;;;;4.04;89.24;103626.06;5044752;28;20040;-63
2022/02/26 09:50:44;;;;;;;48.22;18.80;;;;;;;4.15;89.57;103630.81;5045461;28;20048;-65
2022/02/26 09:53:10;;;;;;;35.55;16.73;;;;;;;4.21;89.30;103636.28;5045164;28;20471;-64
2022/02/26 09:55:36;;;;;;;46.78;19.25;;;;;;;4.28;89.37;103638.28;5044539;28;20086;-64
2022/02/26 09:58:02;;;;;;;32.08;17.10;;;;;;;4.36;89.69;103628.13;5043890;28;20025;-64
2022/02/26 10:00:28;;;;;;;41.90;17.02;;;;;;;4.40;86.37;103639.59;5044415;28;20009;-64
2022/02/26 10:02:53;;;;;;;35.78;15.65;;;;;;;4.48;86.93;103643.38;5047470;28;20037;-64
2022/02/26 10:05:20;;;;;;;40.15;15.65;;;;;;;4.54;86.61;103643.59;5049077;28;20025;-63
2022/02/26 10:07:47;;;;;;;28.10;14.07;;;;;;;4.68;87.30;103641.50;5047785;28;20058;-64
2022/02/26 10:10:21;;;;;;;35.10;14.65;;;;;;;4.84;87.38;103641.16;5048899;28;20037;-64
2022/02/26 10:12:54;;;;;;;26.02;12.73;;;;;;;4.85;85.33;103648.16;5047471;28;20056;-64
2022/02/26 10:15:38;;;;;;;30.15;13.68;;;;;;;4.93;84.09;103633.63;5049438;28;20040;-64
2022/02/26 10:18:07;;;;;;;22.83;11.90;;;;;;;5.03;85.47;103629.63;5048446;28;20032;-65
2022/02/26 10:20:33;;;;;;;32.60;12.65;;;;;;;5.16;83.50;103634.44;5049705;28;20078;-65
2022/02/26 10:22:59;;;;;;;27.42;10.05;;;;;;;5.22;82.66;103641.59;5049053;28;20122;-65
2022/02/26 10:25:27;;;;;;;22.85;9.15;;;;;;;5.37;84.93;103636.00;5047538;28;20049;-63
2022/02/26 10:28:02;;;;;;;23.48;9.77;;;;;;;5.47;84.26;103631.03;5048291;28;20044;-64
2022/02/26 10:30:30;;;;;;;25.88;9.63;;;;;;;5.56;81.88;103632.25;5048816;28;20071;-62
2022/02/26 10:33:09;;;;;;;17.67;7.28;;;;;;;5.67;82.17;103639.56;5047318;28;20032;-64
2022/02/26 10:35:54;;;;;;;21.52;8.07;;;;;;;5.76;82.43;103639.84;5048301;28;20056;-66
2022/02/26 10:38:23;;;;;;;27.27;9.80;;;;;;;5.87;82.18;103634.06;5046377;28;20029;-63
2022/02/26 10:40:51;;;;;;;17.55;7.55;;;;;;;5.91;81.27;103634.22;5047984;28;20502;-64
2022/02/26 10:43:35;;;;;;;19.45;7.00;;;;;;;6.09;81.99;103632.13;5047982;28;20143;-62
2022/02/26 10:46:33;;;;;;;15.52;6.35;;;;;;;6.07;79.29;103635.59;5047932;28;20029;-64
2022/02/26 10:49:09;;;;;;;22.88;7.97;;;;;;;6.11;78.04;103625.22;4992010;28;20047;-63
2022/02/26 10:51:39;;;;;;;22.05;6.65;;;;;;;6.25;78.86;103636.97;5048048;28;20059;-63
2022/02/26 10:54:09;;;;;;;18.05;5.95;;;;;;;6.24;77.17;103640.44;5046344;28;20087;-63
2022/02/26 10:56:37;;;;;;;11.20;5.45;;;;;;;6.30;76.37;103626.66;5048053;28;20474;-64
2022/02/26 10:59:04;;;;;;;19.05;4.57;;;;;;;6.31;74.49;103617.94;5046983;28;20033;-63
2022/02/26 11:01:30;;;;;;;11.93;4.05;;;;;;;6.46;74.35;103625.34;5047743;28;20025;-64
2022/02/26 11:03:56;;;;;;;18.80;4.20;;;;;;;6.55;73.92;103624.72;5047244;28;20100;-63
2022/02/26 11:06:22;;;;;;;12.70;3.40;;;;;;;6.64;73.00;103630.22;5046593;28;20524;-63
2022/02/26 11:08:49;;;;;;;12.90;3.80;;;;;;;6.78;72.03;103619.22;5045906;28;20041;-67
2022/02/26 11:11:15;;;;;;;14.90;3.95;;;;;;;6.94;71.83;103623.13;5047922;28;20124;-63
2022/02/26 11:13:42;;;;;;;13.02;4.28;;;;;;;7.13;72.34;103621.00;5045824;28;20104;-64
2022/02/26 11:16:09;;;;;;;15.07;4.15;;;;;;;7.15;70.42;103617.56;5047550;28;20032;-62
2022/02/26 11:18:40;;;;;;;18.00;4.55;;;;;;;7.27;69.68;103601.25;5045251;28;20021;-64